sensor_id;sensor_type;location;lat;lon;timestamp;P1;durP1;ratioP1;P2;durP2;ratioP2
8958;SDS011;4514;49.476;8.484;2023-11-19T00:01:03;3.37;;;3.10;;
8958;SDS011;4514;49.476;8.484;2023-11-19T00:03:50;3.50;;;2.90;;
8958;SDS011;4514;49.476;8.484;2023-11-19T00:06:37;3.73;;;3.43;;
8958;SDS011;4514;49.476;8.484;2023-11-19T00:09:23;4.17;;;3.37;;
8958;SDS011;4514;49.476;8.484;2023-11-19T00:12:09;2.80;;;2.60;;
8958;SDS011;4514;49.476;8.484;2023-11-19T00:14:54;3.30;;;2.90;;
8958;SDS011;4514;49.476;8.484;2023-11-19T00:17:41;3.17;;;2.77;;
8958;SDS011;4514;49.476;8.484;2023-11-19T00:20:30;2.90;;;2.60;;
8958;SDS011;4514;49.476;8.484;2023-11-19T00:23:16;2.87;;;2.67;;
8958;SDS011;4514;49.476;8.484;2023-11-19T00:26:02;3.22;;;2.83;;
8958;SDS011;4514;49.476;8.484;2023-11-19T00:28:51;3.35;;;2.58;;
8958;SDS011;4514;49.476;8.484;2023-11-19T00:31:38;3.90;;;2.67;;
8958;SDS011;4514;49.476;8.484;2023-11-19T00:34:23;4.47;;;2.65;;
8958;SDS011;4514;49.476;8.484;2023-11-19T00:37:09;2.97;;;2.60;;
8958;SDS011;4514;49.476;8.484;2023-11-19T00:39:55;2.78;;;2.58;;
8958;SDS011;4514;49.476;8.484;2023-11-19T00:42:41;3.22;;;2.58;;
8958;SDS011;4514;49.476;8.484;2023-11-19T00:45:27;2.10;;;2.00;;
8958;SDS011;4514;49.476;8.484;2023-11-19T00:48:13;2.67;;;2.45;;
8958;SDS011;4514;49.476;8.484;2023-11-19T00:50:59;2.40;;;2.20;;
8958;SDS011;4514;49.476;8.484;2023-11-19T00:53:44;2.28;;;2.10;;
8958;SDS011;4514;49.476;8.484;2023-11-19T00:56:30;1.90;;;1.80;;
8958;SDS011;4514;49.476;8.484;2023-11-19T00:59:17;1.67;;;1.57;;
8958;SDS011;4514;49.476;8.484;2023-11-19T01:02:06;1.63;;;1.53;;
8958;SDS011;4514;49.476;8.484;2023-11-19T01:04:52;1.70;;;1.60;;
8958;SDS011;4514;49.476;8.484;2023-11-19T01:07:37;1.60;;;1.50;;
8958;SDS011;4514;49.476;8.484;2023-11-19T01:10:24;1.60;;;1.50;;
8958;SDS011;4514;49.476;8.484;2023-11-19T01:13:11;1.40;;;1.30;;
8958;SDS011;4514;49.476;8.484;2023-11-19T01:15:57;1.20;;;1.20;;
8958;SDS011;4514;49.476;8.484;2023-11-19T01:18:42;1.40;;;1.30;;
8958;SDS011;4514;49.476;8.484;2023-11-19T01:21:31;1.70;;;1.33;;
8958;SDS011;4514;49.476;8.484;2023-11-19T01:24:20;1.43;;;1.27;;
8958;SDS011;4514;49.476;8.484;2023-11-19T01:27:11;1.50;;;1.30;;
8958;SDS011;4514;49.476;8.484;2023-11-19T01:29:59;1.10;;;1.10;;
8958;SDS011;4514;49.476;8.484;2023-11-19T01:32:47;1.03;;;1.03;;
8958;SDS011;4514;49.476;8.484;2023-11-19T01:35:33;1.30;;;1.20;;
8958;SDS011;4514;49.476;8.484;2023-11-19T01:38:18;1.40;;;1.30;;
8958;SDS011;4514;49.476;8.484;2023-11-19T01:41:07;1.10;;;1.10;;
8958;SDS011;4514;49.476;8.484;2023-11-19T01:43:53;1.10;;;1.00;;
8958;SDS011;4514;49.476;8.484;2023-11-19T01:46:44;1.00;;;1.00;;
8958;SDS011;4514;49.476;8.484;2023-11-19T01:49:30;1.00;;;1.00;;
8958;SDS011;4514;49.476;8.484;2023-11-19T01:52:19;1.17;;;1.10;;
8958;SDS011;4514;49.476;8.484;2023-11-19T01:55:08;1.20;;;1.10;;
8958;SDS011;4514;49.476;8.484;2023-11-19T01:57:54;1.50;;;1.02;;
8958;SDS011;4514;49.476;8.484;2023-11-19T02:00:45;1.23;;;1.00;;
8958;SDS011;4514;49.476;8.484;2023-11-19T02:03:34;1.65;;;1.02;;
8958;SDS011;4514;49.476;8.484;2023-11-19T02:06:19;2.53;;;1.00;;
8958;SDS011;4514;49.476;8.484;2023-11-19T02:09:05;1.00;;;1.00;;
8958;SDS011;4514;49.476;8.484;2023-11-19T02:11:53;1.02;;;0.90;;
8958;SDS011;4514;49.476;8.484;2023-11-19T02:14:39;0.88;;;0.88;;
8958;SDS011;4514;49.476;8.484;2023-11-19T02:17:29;0.82;;;0.82;;
8958;SDS011;4514;49.476;8.484;2023-11-19T02:20:20;0.90;;;0.90;;
8958;SDS011;4514;49.476;8.484;2023-11-19T02:23:05;0.88;;;0.88;;
8958;SDS011;4514;49.476;8.484;2023-11-19T02:28:50;1.42;;;1.30;;
8958;SDS011;4514;49.476;8.484;2023-11-19T02:31:36;0.90;;;0.90;;
8958;SDS011;4514;49.476;8.484;2023-11-19T02:34:22;1.20;;;1.03;;
8958;SDS011;4514;49.476;8.484;2023-11-19T02:37:08;1.23;;;0.80;;
8958;SDS011;4514;49.476;8.484;2023-11-19T02:39:55;1.05;;;0.90;;
8958;SDS011;4514;49.476;8.484;2023-11-19T02:42:41;0.90;;;0.90;;
8958;SDS011;4514;49.476;8.484;2023-11-19T02:45:27;0.90;;;0.90;;
8958;SDS011;4514;49.476;8.484;2023-11-19T02:48:16;1.00;;;1.00;;
8958;SDS011;4514;49.476;8.484;2023-11-19T02:51:04;0.90;;;0.90;;
8958;SDS011;4514;49.476;8.484;2023-11-19T02:53:50;1.00;;;1.00;;
8958;SDS011;4514;49.476;8.484;2023-11-19T02:56:36;0.80;;;0.80;;
8958;SDS011;4514;49.476;8.484;2023-11-19T02:59:24;0.70;;;0.70;;
8958;SDS011;4514;49.476;8.484;2023-11-19T03:02:13;1.00;;;1.00;;
8958;SDS011;4514;49.476;8.484;2023-11-19T03:05:01;0.85;;;0.85;;
8958;SDS011;4514;49.476;8.484;2023-11-19T03:07:48;0.70;;;0.70;;
8958;SDS011;4514;49.476;8.484;2023-11-19T03:10:34;1.17;;;1.00;;
8958;SDS011;4514;49.476;8.484;2023-11-19T03:13:20;1.02;;;1.02;;
8958;SDS011;4514;49.476;8.484;2023-11-19T03:16:07;1.00;;;1.00;;
8958;SDS011;4514;49.476;8.484;2023-11-19T03:18:53;1.52;;;1.00;;
8958;SDS011;4514;49.476;8.484;2023-11-19T03:21:39;0.80;;;0.80;;
8958;SDS011;4514;49.476;8.484;2023-11-19T03:24:24;1.15;;;1.05;;
8958;SDS011;4514;49.476;8.484;2023-11-19T03:27:10;1.10;;;0.98;;
8958;SDS011;4514;49.476;8.484;2023-11-19T03:29:56;0.93;;;0.93;;
8958;SDS011;4514;49.476;8.484;2023-11-19T03:32:42;0.90;;;0.90;;
8958;SDS011;4514;49.476;8.484;2023-11-19T03:35:28;1.08;;;1.08;;
8958;SDS011;4514;49.476;8.484;2023-11-19T03:38:16;1.00;;;1.00;;
8958;SDS011;4514;49.476;8.484;2023-11-19T03:41:09;1.42;;;1.05;;
8958;SDS011;4514;49.476;8.484;2023-11-19T03:43:58;1.30;;;1.20;;
8958;SDS011;4514;49.476;8.484;2023-11-19T03:46:44;1.00;;;1.00;;
8958;SDS011;4514;49.476;8.484;2023-11-19T03:49:29;1.30;;;1.00;;
8958;SDS011;4514;49.476;8.484;2023-11-19T03:52:15;1.13;;;1.13;;
8958;SDS011;4514;49.476;8.484;2023-11-19T03:55:01;1.25;;;1.10;;
8958;SDS011;4514;49.476;8.484;2023-11-19T03:57:48;1.30;;;1.20;;
8958;SDS011;4514;49.476;8.484;2023-11-19T04:00:34;1.20;;;1.10;;
8958;SDS011;4514;49.476;8.484;2023-11-19T04:03:20;3.47;;;1.30;;
8958;SDS011;4514;49.476;8.484;2023-11-19T04:06:06;1.10;;;1.10;;
8958;SDS011;4514;49.476;8.484;2023-11-19T04:08:52;1.10;;;1.00;;
8958;SDS011;4514;49.476;8.484;2023-11-19T04:11:40;1.13;;;1.10;;
8958;SDS011;4514;49.476;8.484;2023-11-19T04:14:28;1.30;;;1.20;;
8958;SDS011;4514;49.476;8.484;2023-11-19T04:17:14;1.25;;;1.20;;
8958;SDS011;4514;49.476;8.484;2023-11-19T04:20:02;1.98;;;1.40;;
8958;SDS011;4514;49.476;8.484;2023-11-19T04:22:50;1.27;;;1.27;;
8958;SDS011;4514;49.476;8.484;2023-11-19T04:25:36;2.08;;;1.30;;
8958;SDS011;4514;49.476;8.484;2023-11-19T04:28:25;1.25;;;1.15;;
8958;SDS011;4514;49.476;8.484;2023-11-19T04:31:12;2.58;;;1.10;;
8958;SDS011;4514;49.476;8.484;2023-11-19T04:33:58;1.40;;;1.30;;
8958;SDS011;4514;49.476;8.484;2023-11-19T04:36:45;1.98;;;1.45;;
8958;SDS011;4514;49.476;8.484;2023-11-19T04:39:34;1.10;;;1.10;;
8958;SDS011;4514;49.476;8.484;2023-11-19T04:42:22;2.25;;;1.20;;
8958;SDS011;4514;49.476;8.484;2023-11-19T04:45:07;1.35;;;1.10;;
8958;SDS011;4514;49.476;8.484;2023-11-19T04:47:55;2.00;;;1.30;;
8958;SDS011;4514;49.476;8.484;2023-11-19T04:50:41;1.33;;;1.30;;
8958;SDS011;4514;49.476;8.484;2023-11-19T04:53:26;1.20;;;1.20;;
8958;SDS011;4514;49.476;8.484;2023-11-19T04:56:12;1.00;;;1.00;;
8958;SDS011;4514;49.476;8.484;2023-11-19T04:59:01;1.40;;;1.30;;
8958;SDS011;4514;49.476;8.484;2023-11-19T05:01:50;1.40;;;1.30;;
8958;SDS011;4514;49.476;8.484;2023-11-19T05:04:36;1.90;;;1.33;;
8958;SDS011;4514;49.476;8.484;2023-11-19T05:07:25;1.25;;;1.25;;
8958;SDS011;4514;49.476;8.484;2023-11-19T05:10:14;1.40;;;1.30;;
8958;SDS011;4514;49.476;8.484;2023-11-19T05:13:00;1.40;;;1.30;;
8958;SDS011;4514;49.476;8.484;2023-11-19T05:15:45;1.60;;;1.50;;
8958;SDS011;4514;49.476;8.484;2023-11-19T05:18:34;1.42;;;1.40;;
8958;SDS011;4514;49.476;8.484;2023-11-19T05:21:20;1.50;;;1.40;;
8958;SDS011;4514;49.476;8.484;2023-11-19T05:24:09;1.40;;;1.30;;
8958;SDS011;4514;49.476;8.484;2023-11-19T05:26:54;1.60;;;1.50;;
8958;SDS011;4514;49.476;8.484;2023-11-19T05:29:40;2.60;;;1.45;;
8958;SDS011;4514;49.476;8.484;2023-11-19T05:32:28;1.45;;;1.40;;
8958;SDS011;4514;49.476;8.484;2023-11-19T05:35:13;1.75;;;1.60;;
8958;SDS011;4514;49.476;8.484;2023-11-19T05:38:01;1.88;;;1.77;;
8958;SDS011;4514;49.476;8.484;2023-11-19T05:40:47;1.55;;;1.45;;
8958;SDS011;4514;49.476;8.484;2023-11-19T05:43:33;2.10;;;1.70;;
8958;SDS011;4514;49.476;8.484;2023-11-19T05:46:19;2.15;;;1.95;;
8958;SDS011;4514;49.476;8.484;2023-11-19T05:49:05;1.60;;;1.50;;
8958;SDS011;4514;49.476;8.484;2023-11-19T05:51:51;2.10;;;1.77;;
8958;SDS011;4514;49.476;8.484;2023-11-19T05:54:36;2.10;;;1.77;;
8958;SDS011;4514;49.476;8.484;2023-11-19T05:57:23;2.03;;;1.70;;
8958;SDS011;4514;49.476;8.484;2023-11-19T06:00:15;3.33;;;1.70;;
8958;SDS011;4514;49.476;8.484;2023-11-19T06:03:01;1.90;;;1.80;;
8958;SDS011;4514;49.476;8.484;2023-11-19T06:05:47;1.90;;;1.80;;
8958;SDS011;4514;49.476;8.484;2023-11-19T06:08:35;1.60;;;1.50;;
8958;SDS011;4514;49.476;8.484;2023-11-19T06:11:22;3.35;;;1.80;;
8958;SDS011;4514;49.476;8.484;2023-11-19T06:14:09;2.75;;;1.80;;
8958;SDS011;4514;49.476;8.484;2023-11-19T06:16:54;1.70;;;1.60;;
8958;SDS011;4514;49.476;8.484;2023-11-19T06:19:40;1.88;;;1.50;;
8958;SDS011;4514;49.476;8.484;2023-11-19T06:22:28;2.47;;;2.00;;
8958;SDS011;4514;49.476;8.484;2023-11-19T06:25:14;2.95;;;1.50;;
8958;SDS011;4514;49.476;8.484;2023-11-19T06:28:02;2.05;;;1.50;;
8958;SDS011;4514;49.476;8.484;2023-11-19T06:30:48;1.67;;;1.58;;
8958;SDS011;4514;49.476;8.484;2023-11-19T06:33:34;2.70;;;1.60;;
8958;SDS011;4514;49.476;8.484;2023-11-19T06:36:20;2.10;;;1.65;;
8958;SDS011;4514;49.476;8.484;2023-11-19T06:39:07;2.38;;;1.70;;
8958;SDS011;4514;49.476;8.484;2023-11-19T06:41:54;2.05;;;1.50;;
8958;SDS011;4514;49.476;8.484;2023-11-19T06:44:39;1.90;;;1.70;;
8958;SDS011;4514;49.476;8.484;2023-11-19T06:47:25;1.63;;;1.52;;
8958;SDS011;4514;49.476;8.484;2023-11-19T06:50:12;1.95;;;1.40;;
8958;SDS011;4514;49.476;8.484;2023-11-19T06:53:00;2.20;;;1.50;;
8958;SDS011;4514;49.476;8.484;2023-11-19T06:55:46;1.70;;;1.40;;
8958;SDS011;4514;49.476;8.484;2023-11-19T06:58:35;3.13;;;1.85;;
8958;SDS011;4514;49.476;8.484;2023-11-19T07:01:21;1.73;;;1.45;;
8958;SDS011;4514;49.476;8.484;2023-11-19T07:04:07;3.35;;;1.60;;
8958;SDS011;4514;49.476;8.484;2023-11-19T07:06:55;2.10;;;1.33;;
8958;SDS011;4514;49.476;8.484;2023-11-19T07:09:43;6.35;;;1.52;;
8958;SDS011;4514;49.476;8.484;2023-11-19T07:12:31;1.30;;;1.20;;
8958;SDS011;4514;49.476;8.484;2023-11-19T07:15:17;1.60;;;1.20;;
8958;SDS011;4514;49.476;8.484;2023-11-19T07:18:03;1.98;;;1.40;;
8958;SDS011;4514;49.476;8.484;2023-11-19T07:20:51;2.13;;;1.30;;
8958;SDS011;4514;49.476;8.484;2023-11-19T07:23:36;4.07;;;1.55;;
8958;SDS011;4514;49.476;8.484;2023-11-19T07:26:22;2.35;;;1.40;;
8958;SDS011;4514;49.476;8.484;2023-11-19T07:29:08;3.03;;;1.73;;
8958;SDS011;4514;49.476;8.484;2023-11-19T07:31:54;3.58;;;1.98;;
8958;SDS011;4514;49.476;8.484;2023-11-19T07:34:43;2.45;;;1.80;;
8958;SDS011;4514;49.476;8.484;2023-11-19T07:37:29;2.53;;;2.22;;
8958;SDS011;4514;49.476;8.484;2023-11-19T07:40:15;3.53;;;1.80;;
8958;SDS011;4514;49.476;8.484;2023-11-19T07:43:03;5.78;;;2.92;;
8958;SDS011;4514;49.476;8.484;2023-11-19T07:45:52;4.80;;;1.80;;
8958;SDS011;4514;49.476;8.484;2023-11-19T07:48:40;1.88;;;1.33;;
8958;SDS011;4514;49.476;8.484;2023-11-19T07:51:27;1.38;;;1.20;;
8958;SDS011;4514;49.476;8.484;2023-11-19T07:54:13;2.65;;;1.20;;
8958;SDS011;4514;49.476;8.484;2023-11-19T07:56:59;2.75;;;1.30;;
8958;SDS011;4514;49.476;8.484;2023-11-19T07:59:44;2.25;;;1.10;;
8958;SDS011;4514;49.476;8.484;2023-11-19T08:02:30;2.15;;;1.20;;
8958;SDS011;4514;49.476;8.484;2023-11-19T08:05:16;1.48;;;1.13;;
8958;SDS011;4514;49.476;8.484;2023-11-19T08:08:02;1.73;;;1.10;;
8958;SDS011;4514;49.476;8.484;2023-11-19T08:10:49;1.70;;;1.20;;
8958;SDS011;4514;49.476;8.484;2023-11-19T08:13:36;2.17;;;1.48;;
8958;SDS011;4514;49.476;8.484;2023-11-19T08:16:22;2.10;;;1.20;;
8958;SDS011;4514;49.476;8.484;2023-11-19T08:19:10;1.95;;;1.30;;
8958;SDS011;4514;49.476;8.484;2023-11-19T08:21:56;1.33;;;1.20;;
8958;SDS011;4514;49.476;8.484;2023-11-19T08:24:42;3.53;;;2.75;;
8958;SDS011;4514;49.476;8.484;2023-11-19T08:27:28;1.63;;;1.52;;
8958;SDS011;4514;49.476;8.484;2023-11-19T08:30:14;2.22;;;2.00;;
8958;SDS011;4514;49.476;8.484;2023-11-19T08:32:59;2.20;;;1.50;;
8958;SDS011;4514;49.476;8.484;2023-11-19T08:35:48;1.90;;;1.60;;
8958;SDS011;4514;49.476;8.484;2023-11-19T08:38:34;2.17;;;1.95;;
8958;SDS011;4514;49.476;8.484;2023-11-19T08:41:20;1.80;;;1.70;;
8958;SDS011;4514;49.476;8.484;2023-11-19T08:44:07;2.20;;;1.80;;
8958;SDS011;4514;49.476;8.484;2023-11-19T08:46:55;2.03;;;1.70;;
8958;SDS011;4514;49.476;8.484;2023-11-19T08:49:43;3.35;;;2.20;;
8958;SDS011;4514;49.476;8.484;2023-11-19T08:52:30;1.70;;;1.58;;
8958;SDS011;4514;49.476;8.484;2023-11-19T08:55:16;2.92;;;1.52;;
8958;SDS011;4514;49.476;8.484;2023-11-19T08:58:04;3.38;;;1.85;;
8958;SDS011;4514;49.476;8.484;2023-11-19T09:00:49;4.18;;;1.70;;
8958;SDS011;4514;49.476;8.484;2023-11-19T09:03:35;3.63;;;2.03;;
8958;SDS011;4514;49.476;8.484;2023-11-19T09:06:22;4.15;;;2.17;;
8958;SDS011;4514;49.476;8.484;2023-11-19T09:09:08;3.67;;;1.58;;
8958;SDS011;4514;49.476;8.484;2023-11-19T09:11:54;5.45;;;1.60;;
8958;SDS011;4514;49.476;8.484;2023-11-19T09:14:40;3.78;;;1.45;;
8958;SDS011;4514;49.476;8.484;2023-11-19T09:17:27;2.92;;;1.27;;
8958;SDS011;4514;49.476;8.484;2023-11-19T09:20:15;3.08;;;1.30;;
8958;SDS011;4514;49.476;8.484;2023-11-19T09:23:01;2.15;;;1.23;;
8958;SDS011;4514;49.476;8.484;2023-11-19T09:25:46;3.97;;;1.77;;
8958;SDS011;4514;49.476;8.484;2023-11-19T09:28:32;8.38;;;4.13;;
8958;SDS011;4514;49.476;8.484;2023-11-19T09:31:18;5.00;;;2.20;;
8958;SDS011;4514;49.476;8.484;2023-11-19T09:34:06;7.72;;;2.55;;
8958;SDS011;4514;49.476;8.484;2023-11-19T09:36:51;2.97;;;1.33;;
8958;SDS011;4514;49.476;8.484;2023-11-19T09:39:37;4.10;;;1.73;;
8958;SDS011;4514;49.476;8.484;2023-11-19T09:42:23;2.55;;;1.30;;
8958;SDS011;4514;49.476;8.484;2023-11-19T09:45:15;3.33;;;1.00;;
8958;SDS011;4514;49.476;8.484;2023-11-19T09:48:04;2.40;;;1.30;;
8958;SDS011;4514;49.476;8.484;2023-11-19T09:50:53;3.35;;;1.20;;
8958;SDS011;4514;49.476;8.484;2023-11-19T09:53:39;2.95;;;1.45;;
8958;SDS011;4514;49.476;8.484;2023-11-19T09:56:24;1.35;;;1.02;;
8958;SDS011;4514;49.476;8.484;2023-11-19T09:59:11;2.33;;;1.30;;
8958;SDS011;4514;49.476;8.484;2023-11-19T10:01:57;1.30;;;1.20;;
8958;SDS011;4514;49.476;8.484;2023-11-19T10:04:46;1.45;;;1.00;;
8958;SDS011;4514;49.476;8.484;2023-11-19T10:07:33;3.47;;;1.40;;
8958;SDS011;4514;49.476;8.484;2023-11-19T10:10:19;1.45;;;1.27;;
8958;SDS011;4514;49.476;8.484;2023-11-19T10:13:05;1.38;;;1.08;;
8958;SDS011;4514;49.476;8.484;2023-11-19T10:15:53;3.45;;;1.40;;
8958;SDS011;4514;49.476;8.484;2023-11-19T10:18:47;2.65;;;1.20;;
8958;SDS011;4514;49.476;8.484;2023-11-19T10:21:35;1.67;;;1.30;;
8958;SDS011;4514;49.476;8.484;2023-11-19T10:24:33;2.80;;;1.30;;
8958;SDS011;4514;49.476;8.484;2023-11-19T10:27:19;3.67;;;1.50;;
8958;SDS011;4514;49.476;8.484;2023-11-19T10:30:10;3.60;;;1.10;;
8958;SDS011;4514;49.476;8.484;2023-11-19T10:35:55;1.65;;;1.23;;
8958;SDS011;4514;49.476;8.484;2023-11-19T10:38:51;4.13;;;2.70;;
8958;SDS011;4514;49.476;8.484;2023-11-19T10:41:41;3.50;;;2.22;;
8958;SDS011;4514;49.476;8.484;2023-11-19T10:44:31;3.60;;;1.20;;
8958;SDS011;4514;49.476;8.484;2023-11-19T10:47:19;3.10;;;1.20;;
8958;SDS011;4514;49.476;8.484;2023-11-19T10:50:05;2.33;;;1.30;;
8958;SDS011;4514;49.476;8.484;2023-11-19T10:52:55;2.55;;;1.35;;
8958;SDS011;4514;49.476;8.484;2023-11-19T10:55:45;3.30;;;1.33;;
8958;SDS011;4514;49.476;8.484;2023-11-19T10:58:33;3.17;;;1.27;;
8958;SDS011;4514;49.476;8.484;2023-11-19T11:01:21;3.53;;;1.42;;
8958;SDS011;4514;49.476;8.484;2023-11-19T11:04:13;2.50;;;1.60;;
8958;SDS011;4514;49.476;8.484;2023-11-19T11:07:02;2.58;;;1.20;;
8958;SDS011;4514;49.476;8.484;2023-11-19T11:09:49;2.95;;;1.05;;
8958;SDS011;4514;49.476;8.484;2023-11-19T11:12:42;2.03;;;1.27;;
8958;SDS011;4514;49.476;8.484;2023-11-19T11:15:29;2.13;;;1.05;;
8958;SDS011;4514;49.476;8.484;2023-11-19T11:18:18;2.95;;;1.48;;
8958;SDS011;4514;49.476;8.484;2023-11-19T11:27:20;1.40;;;1.30;;
8958;SDS011;4514;49.476;8.484;2023-11-19T11:36:48;5.30;;;1.80;;
8958;SDS011;4514;49.476;8.484;2023-11-19T11:39:39;2.90;;;1.40;;
8958;SDS011;4514;49.476;8.484;2023-11-19T11:45:13;3.33;;;1.58;;
8958;SDS011;4514;49.476;8.484;2023-11-19T11:48:04;4.65;;;1.60;;
8958;SDS011;4514;49.476;8.484;2023-11-19T11:50:53;2.47;;;1.45;;
8958;SDS011;4514;49.476;8.484;2023-11-19T11:53:42;3.22;;;1.40;;
8958;SDS011;4514;49.476;8.484;2023-11-19T11:56:32;2.53;;;1.73;;
8958;SDS011;4514;49.476;8.484;2023-11-19T11:59:21;3.47;;;1.38;;
8958;SDS011;4514;49.476;8.484;2023-11-19T12:02:09;3.17;;;1.30;;
8958;SDS011;4514;49.476;8.484;2023-11-19T12:04:56;3.95;;;1.55;;
8958;SDS011;4514;49.476;8.484;2023-11-19T12:07:44;2.53;;;1.25;;
8958;SDS011;4514;49.476;8.484;2023-11-19T12:10:52;3.58;;;2.20;;
8958;SDS011;4514;49.476;8.484;2023-11-19T12:13:54;3.88;;;1.52;;
8958;SDS011;4514;49.476;8.484;2023-11-19T12:16:47;5.35;;;2.60;;
8958;SDS011;4514;49.476;8.484;2023-11-19T12:19:33;3.22;;;1.70;;
8958;SDS011;4514;49.476;8.484;2023-11-19T12:22:19;4.07;;;1.88;;
8958;SDS011;4514;49.476;8.484;2023-11-19T12:25:06;2.20;;;1.38;;
8958;SDS011;4514;49.476;8.484;2023-11-19T12:27:52;2.40;;;1.33;;
8958;SDS011;4514;49.476;8.484;2023-11-19T12:30:39;3.90;;;1.60;;
8958;SDS011;4514;49.476;8.484;2023-11-19T12:33:25;3.08;;;1.23;;
8958;SDS011;4514;49.476;8.484;2023-11-19T12:36:10;3.17;;;1.40;;
8958;SDS011;4514;49.476;8.484;2023-11-19T12:38:56;2.90;;;1.20;;
8958;SDS011;4514;49.476;8.484;2023-11-19T12:41:49;3.42;;;1.40;;
8958;SDS011;4514;49.476;8.484;2023-11-19T12:44:36;2.97;;;1.50;;
8958;SDS011;4514;49.476;8.484;2023-11-19T12:47:22;5.18;;;1.63;;
8958;SDS011;4514;49.476;8.484;2023-11-19T12:50:07;2.53;;;1.40;;
8958;SDS011;4514;49.476;8.484;2023-11-19T12:52:56;2.95;;;1.45;;
8958;SDS011;4514;49.476;8.484;2023-11-19T12:55:43;2.95;;;1.70;;
8958;SDS011;4514;49.476;8.484;2023-11-19T12:58:29;5.90;;;1.73;;
8958;SDS011;4514;49.476;8.484;2023-11-19T13:01:18;4.63;;;1.48;;
8958;SDS011;4514;49.476;8.484;2023-11-19T13:04:18;3.30;;;1.40;;
8958;SDS011;4514;49.476;8.484;2023-11-19T13:07:04;5.13;;;1.63;;
8958;SDS011;4514;49.476;8.484;2023-11-19T13:09:50;3.25;;;1.75;;
8958;SDS011;4514;49.476;8.484;2023-11-19T13:12:39;3.80;;;1.80;;
8958;SDS011;4514;49.476;8.484;2023-11-19T13:15:24;4.63;;;1.85;;
8958;SDS011;4514;49.476;8.484;2023-11-19T13:18:11;4.30;;;2.08;;
8958;SDS011;4514;49.476;8.484;2023-11-19T13:20:57;4.70;;;1.50;;
8958;SDS011;4514;49.476;8.484;2023-11-19T13:23:43;3.50;;;1.33;;
8958;SDS011;4514;49.476;8.484;2023-11-19T13:26:32;4.05;;;1.50;;
8958;SDS011;4514;49.476;8.484;2023-11-19T13:29:18;2.42;;;1.50;;
8958;SDS011;4514;49.476;8.484;2023-11-19T13:32:03;3.28;;;1.50;;
8958;SDS011;4514;49.476;8.484;2023-11-19T13:34:50;2.72;;;1.27;;
8958;SDS011;4514;49.476;8.484;2023-11-19T13:37:36;2.58;;;1.30;;
8958;SDS011;4514;49.476;8.484;2023-11-19T13:40:22;3.40;;;1.70;;
8958;SDS011;4514;49.476;8.484;2023-11-19T13:43:10;2.88;;;1.30;;
8958;SDS011;4514;49.476;8.484;2023-11-19T13:45:58;1.95;;;1.25;;
8958;SDS011;4514;49.476;8.484;2023-11-19T13:48:44;4.20;;;1.50;;
8958;SDS011;4514;49.476;8.484;2023-11-19T13:51:30;2.17;;;1.30;;
8958;SDS011;4514;49.476;8.484;2023-11-19T13:54:15;2.50;;;1.52;;
8958;SDS011;4514;49.476;8.484;2023-11-19T13:57:04;7.07;;;1.58;;
8958;SDS011;4514;49.476;8.484;2023-11-19T13:59:50;5.00;;;1.55;;
8958;SDS011;4514;49.476;8.484;2023-11-19T14:02:35;2.45;;;1.20;;
8958;SDS011;4514;49.476;8.484;2023-11-19T14:05:21;4.65;;;1.48;;
8958;SDS011;4514;49.476;8.484;2023-11-19T14:08:08;2.67;;;1.50;;
8958;SDS011;4514;49.476;8.484;2023-11-19T14:10:59;3.85;;;1.48;;
8958;SDS011;4514;49.476;8.484;2023-11-19T14:13:48;2.42;;;1.40;;
8958;SDS011;4514;49.476;8.484;2023-11-19T14:16:34;3.05;;;1.35;;
8958;SDS011;4514;49.476;8.484;2023-11-19T14:19:22;4.75;;;1.77;;
8958;SDS011;4514;49.476;8.484;2023-11-19T14:22:08;5.70;;;1.60;;
8958;SDS011;4514;49.476;8.484;2023-11-19T14:24:56;3.17;;;1.70;;
8958;SDS011;4514;49.476;8.484;2023-11-19T14:27:43;4.00;;;2.67;;
8958;SDS011;4514;49.476;8.484;2023-11-19T14:30:29;6.35;;;2.38;;
8958;SDS011;4514;49.476;8.484;2023-11-19T14:33:14;4.25;;;2.40;;
8958;SDS011;4514;49.476;8.484;2023-11-19T14:36:00;4.57;;;1.40;;
8958;SDS011;4514;49.476;8.484;2023-11-19T14:38:47;4.47;;;1.50;;
8958;SDS011;4514;49.476;8.484;2023-11-19T14:41:33;3.15;;;1.48;;
8958;SDS011;4514;49.476;8.484;2023-11-19T14:44:21;3.63;;;1.30;;
8958;SDS011;4514;49.476;8.484;2023-11-19T14:47:07;4.40;;;1.33;;
8958;SDS011;4514;49.476;8.484;2023-11-19T14:49:52;3.40;;;1.30;;
8958;SDS011;4514;49.476;8.484;2023-11-19T14:52:38;4.10;;;1.58;;
8958;SDS011;4514;49.476;8.484;2023-11-19T14:55:24;3.90;;;1.50;;
8958;SDS011;4514;49.476;8.484;2023-11-19T14:58:10;2.15;;;1.20;;
8958;SDS011;4514;49.476;8.484;2023-11-19T15:00:59;3.55;;;1.25;;
8958;SDS011;4514;49.476;8.484;2023-11-19T15:03:45;4.40;;;1.38;;
8958;SDS011;4514;49.476;8.484;2023-11-19T15:06:31;4.57;;;1.33;;
8958;SDS011;4514;49.476;8.484;2023-11-19T15:09:19;3.10;;;1.27;;
8958;SDS011;4514;49.476;8.484;2023-11-19T15:12:06;3.30;;;1.40;;
8958;SDS011;4514;49.476;8.484;2023-11-19T15:14:52;2.92;;;1.27;;
8958;SDS011;4514;49.476;8.484;2023-11-19T15:17:38;2.38;;;1.30;;
8958;SDS011;4514;49.476;8.484;2023-11-19T15:20:28;4.05;;;1.60;;
8958;SDS011;4514;49.476;8.484;2023-11-19T15:23:15;3.60;;;1.40;;
8958;SDS011;4514;49.476;8.484;2023-11-19T15:26:05;4.57;;;1.73;;
8958;SDS011;4514;49.476;8.484;2023-11-19T15:28:53;4.05;;;1.30;;
8958;SDS011;4514;49.476;8.484;2023-11-19T15:31:43;3.30;;;1.50;;
8958;SDS011;4514;49.476;8.484;2023-11-19T15:34:28;3.85;;;1.48;;
8958;SDS011;4514;49.476;8.484;2023-11-19T15:37:14;5.00;;;1.40;;
8958;SDS011;4514;49.476;8.484;2023-11-19T15:40:00;5.57;;;1.67;;
8958;SDS011;4514;49.476;8.484;2023-11-19T15:42:52;4.93;;;1.88;;
8958;SDS011;4514;49.476;8.484;2023-11-19T15:45:40;2.78;;;1.27;;
8958;SDS011;4514;49.476;8.484;2023-11-19T15:48:26;4.13;;;1.63;;
8958;SDS011;4514;49.476;8.484;2023-11-19T15:51:11;2.67;;;1.60;;
8958;SDS011;4514;49.476;8.484;2023-11-19T15:53:57;5.60;;;1.65;;
8958;SDS011;4514;49.476;8.484;2023-11-19T15:56:43;4.60;;;1.75;;
8958;SDS011;4514;49.476;8.484;2023-11-19T15:59:29;3.30;;;1.45;;
8958;SDS011;4514;49.476;8.484;2023-11-19T16:02:16;5.68;;;3.20;;
8958;SDS011;4514;49.476;8.484;2023-11-19T16:05:02;5.45;;;2.30;;
8958;SDS011;4514;49.476;8.484;2023-11-19T16:07:50;4.15;;;2.22;;
8958;SDS011;4514;49.476;8.484;2023-11-19T16:10:38;3.65;;;1.88;;
8958;SDS011;4514;49.476;8.484;2023-11-19T16:13:25;5.55;;;2.03;;
8958;SDS011;4514;49.476;8.484;2023-11-19T16:16:11;6.22;;;1.70;;
8958;SDS011;4514;49.476;8.484;2023-11-19T16:18:59;3.75;;;1.77;;
8958;SDS011;4514;49.476;8.484;2023-11-19T16:21:44;2.70;;;1.33;;
8958;SDS011;4514;49.476;8.484;2023-11-19T16:24:30;7.68;;;1.80;;
8958;SDS011;4514;49.476;8.484;2023-11-19T16:27:16;7.68;;;1.95;;
8958;SDS011;4514;49.476;8.484;2023-11-19T16:30:02;4.88;;;1.88;;
8958;SDS011;4514;49.476;8.484;2023-11-19T16:32:57;4.55;;;1.65;;
8958;SDS011;4514;49.476;8.484;2023-11-19T16:35:46;5.28;;;1.92;;
8958;SDS011;4514;49.476;8.484;2023-11-19T16:38:32;7.63;;;3.15;;
8958;SDS011;4514;49.476;8.484;2023-11-19T16:41:18;6.22;;;2.13;;
8958;SDS011;4514;49.476;8.484;2023-11-19T16:44:08;6.35;;;2.40;;
8958;SDS011;4514;49.476;8.484;2023-11-19T16:46:54;5.07;;;2.50;;
8958;SDS011;4514;49.476;8.484;2023-11-19T16:49:39;5.95;;;2.20;;
8958;SDS011;4514;49.476;8.484;2023-11-19T16:52:27;6.60;;;1.80;;
8958;SDS011;4514;49.476;8.484;2023-11-19T16:55:13;6.47;;;2.00;;
8958;SDS011;4514;49.476;8.484;2023-11-19T16:58:01;6.43;;;1.90;;
8958;SDS011;4514;49.476;8.484;2023-11-19T17:00:47;6.25;;;1.80;;
8958;SDS011;4514;49.476;8.484;2023-11-19T17:03:33;7.13;;;2.35;;
8958;SDS011;4514;49.476;8.484;2023-11-19T17:06:21;5.32;;;1.70;;
8958;SDS011;4514;49.476;8.484;2023-11-19T17:09:08;6.43;;;2.03;;
8958;SDS011;4514;49.476;8.484;2023-11-19T17:11:58;6.10;;;1.70;;
8958;SDS011;4514;49.476;8.484;2023-11-19T17:14:43;6.78;;;2.08;;
8958;SDS011;4514;49.476;8.484;2023-11-19T17:17:30;10.25;;;2.20;;
8958;SDS011;4514;49.476;8.484;2023-11-19T17:20:21;5.03;;;2.20;;
8958;SDS011;4514;49.476;8.484;2023-11-19T17:23:07;6.47;;;2.20;;
8958;SDS011;4514;49.476;8.484;2023-11-19T17:25:55;5.80;;;2.47;;
8958;SDS011;4514;49.476;8.484;2023-11-19T17:28:43;5.07;;;2.20;;
8958;SDS011;4514;49.476;8.484;2023-11-19T17:31:32;7.35;;;2.00;;
8958;SDS011;4514;49.476;8.484;2023-11-19T17:34:21;7.90;;;2.13;;
8958;SDS011;4514;49.476;8.484;2023-11-19T17:37:07;6.53;;;2.20;;
8958;SDS011;4514;49.476;8.484;2023-11-19T17:39:53;7.75;;;2.33;;